createdAt,value
2022-10-15T00:01:44.227Z,3.58
2022-10-15T00:03:47.083Z,3.60
2022-10-15T00:05:49.825Z,3.61
2022-10-15T00:07:52.992Z,3.57
2022-10-15T00:09:56.447Z,3.59
2022-10-15T00:11:59.062Z,3.55
2022-10-15T00:14:01.694Z,3.57
2022-10-15T00:16:04.824Z,3.52
2022-10-15T00:18:07.380Z,3.47
2022-10-15T00:20:11.209Z,3.46
2022-10-15T00:22:14.013Z,3.47
2022-10-15T00:24:16.607Z,3.49
2022-10-15T00:26:22.006Z,3.48
2022-10-15T00:28:25.181Z,3.52
2022-10-15T00:30:27.842Z,3.47
2022-10-15T00:32:30.935Z,3.44
2022-10-15T00:34:33.695Z,3.42
2022-10-15T00:36:37.557Z,3.44
2022-10-15T00:38:40.598Z,3.41
2022-10-15T00:40:43.216Z,3.42
2022-10-15T00:42:46.107Z,3.45
2022-10-15T00:44:57.594Z,3.46
2022-10-15T00:47:23.327Z,3.42
2022-10-15T00:49:33.887Z,3.43
2022-10-15T00:51:43.110Z,3.38
2022-10-15T00:53:46.599Z,3.41
2022-10-15T00:55:51.337Z,3.42
2022-10-15T00:57:56.221Z,3.42
2022-10-15T01:00:07.299Z,3.41
2022-10-15T01:02:11.275Z,3.37
2022-10-15T01:04:15.385Z,3.34
2022-10-15T01:06:18.035Z,3.35
2022-10-15T01:08:20.645Z,3.36
2022-10-15T01:10:29.472Z,3.37
2022-10-15T01:13:02.771Z,3.36
2022-10-15T01:15:29.612Z,3.38
2022-10-15T01:17:48.184Z,3.39
2022-10-15T01:20:24.536Z,3.35
2022-10-15T01:22:53.675Z,3.38
2022-10-15T01:25:21.263Z,3.41
2022-10-15T01:27:33.181Z,3.40
2022-10-15T01:29:54.410Z,3.38
2022-10-15T01:32:14.421Z,3.37
2022-10-15T01:34:29.025Z,3.32
2022-10-15T01:36:56.893Z,3.40
2022-10-15T01:39:37.156Z,3.37
2022-10-15T01:41:44.521Z,3.35
2022-10-15T01:43:58.098Z,3.39
2022-10-15T01:46:06.387Z,3.37
2022-10-15T01:48:11.762Z,3.34
2022-10-15T01:50:17.506Z,3.33
2022-10-15T01:52:24.554Z,3.38
2022-10-15T01:54:28.225Z,3.34
2022-10-15T01:56:34.827Z,3.36
2022-10-15T01:58:41.444Z,3.37
2022-10-15T02:00:44.770Z,3.37
2022-10-15T02:02:47.408Z,3.41
2022-10-15T02:04:50.333Z,3.36
2022-10-15T02:07:07.371Z,3.32
2022-10-15T02:09:37.148Z,3.35
2022-10-15T02:11:47.997Z,3.41
2022-10-15T02:14:51.823Z,3.41
2022-10-15T02:17:12.115Z,3.38
2022-10-15T02:19:43.426Z,3.35
2022-10-15T02:22:06.468Z,3.31
2022-10-15T02:24:27.648Z,3.35
2022-10-15T02:26:31.435Z,3.38
2022-10-15T02:28:37.143Z,3.37
2022-10-15T02:30:42.394Z,3.34
2022-10-15T02:32:49.489Z,3.36
2022-10-15T02:34:53.750Z,3.37
2022-10-15T02:36:59.163Z,3.37
2022-10-15T02:39:04.012Z,3.38
2022-10-15T02:41:08.648Z,3.38
2022-10-15T02:43:14.902Z,3.41
2022-10-15T02:45:17.617Z,3.39
2022-10-15T02:47:20.312Z,3.36
2022-10-15T02:49:22.970Z,3.42
2022-10-15T02:51:25.683Z,3.42
2022-10-15T02:53:28.310Z,3.41
2022-10-15T02:55:31.074Z,3.46
2022-10-15T02:57:33.741Z,3.47
2022-10-15T02:59:36.403Z,3.47
2022-10-15T03:01:39.057Z,3.50
2022-10-15T03:03:41.697Z,3.50
2022-10-15T03:05:44.429Z,3.53
2022-10-15T03:07:47.007Z,3.52
2022-10-15T03:09:49.639Z,3.52
2022-10-15T03:11:52.292Z,3.54
2022-10-15T03:13:54.860Z,3.55
2022-10-15T03:15:57.455Z,3.56
2022-10-15T03:18:00.064Z,3.54
2022-10-15T03:20:02.683Z,3.51
2022-10-15T03:22:06.054Z,3.51
2022-10-15T03:24:08.724Z,3.49
2022-10-15T03:26:11.347Z,3.48
2022-10-15T03:28:14.021Z,3.47
2022-10-15T03:30:16.946Z,3.47
2022-10-15T03:32:19.566Z,3.47
2022-10-15T03:34:22.236Z,3.48
2022-10-15T03:36:24.808Z,3.47
2022-10-15T03:38:27.411Z,3.43
2022-10-15T03:40:30.059Z,3.43
2022-10-15T03:42:32.654Z,3.36
2022-10-15T03:44:35.388Z,3.37
2022-10-15T03:46:38.058Z,3.38
2022-10-15T03:48:40.683Z,3.37
2022-10-15T03:52:50.930Z,3.41
2022-10-15T03:54:53.536Z,3.37
2022-10-15T03:56:56.313Z,3.42
2022-10-15T03:58:58.966Z,3.42
2022-10-15T04:01:01.938Z,3.46
2022-10-15T04:03:04.579Z,3.43
2022-10-15T04:05:07.424Z,3.48
2022-10-15T04:07:10.126Z,3.44
2022-10-15T04:09:12.712Z,3.41
2022-10-15T04:11:15.254Z,3.44
2022-10-15T04:13:17.848Z,3.41
2022-10-15T04:15:20.518Z,3.42
2022-10-15T04:17:23.118Z,3.43
2022-10-15T04:19:25.889Z,3.44
2022-10-15T04:21:28.489Z,3.48
2022-10-15T04:23:31.132Z,3.48
2022-10-15T04:25:33.669Z,3.46
2022-10-15T04:27:36.277Z,3.39
2022-10-15T04:29:38.874Z,3.45
2022-10-15T04:31:42.021Z,3.45
2022-10-15T04:33:44.606Z,3.48
2022-10-15T04:35:47.263Z,3.50
2022-10-15T04:37:49.933Z,3.52
2022-10-15T04:39:52.580Z,3.50
2022-10-15T04:41:55.153Z,3.53
2022-10-15T04:43:58.599Z,3.54
2022-10-15T04:46:02.912Z,3.55
2022-10-15T04:48:05.702Z,3.53
2022-10-15T04:50:08.691Z,3.57
2022-10-15T04:52:11.369Z,3.57
2022-10-15T04:54:14.124Z,3.58
2022-10-15T04:56:19.666Z,3.58
2022-10-15T04:58:22.465Z,3.60
2022-10-15T05:00:25.345Z,3.56
2022-10-15T05:02:29.155Z,3.56
2022-10-15T05:04:32.014Z,3.53
2022-10-15T05:06:35.056Z,3.49
2022-10-15T05:08:38.800Z,3.48
2022-10-15T05:10:41.608Z,3.44
2022-10-15T05:12:44.356Z,3.44
2022-10-15T05:14:47.046Z,3.41
2022-10-15T05:16:49.727Z,3.41
2022-10-15T05:18:56.722Z,3.36
2022-10-15T05:21:02.245Z,3.39
2022-10-15T05:23:06.516Z,3.40
2022-10-15T05:25:09.816Z,3.44
2022-10-15T05:27:13.317Z,3.48
2022-10-15T05:29:15.992Z,3.48
2022-10-15T05:31:22.307Z,3.49
2022-10-15T05:33:24.961Z,3.52
2022-10-15T05:35:27.652Z,3.51
2022-10-15T05:37:30.273Z,3.48
2022-10-15T05:39:32.941Z,3.51
2022-10-15T05:41:35.658Z,3.52
2022-10-15T05:43:41.179Z,3.57
2022-10-15T05:45:44.278Z,3.59
2022-10-15T05:47:46.936Z,3.57
2022-10-15T05:49:49.517Z,3.61
2022-10-15T05:51:52.281Z,3.58
2022-10-15T05:53:56.343Z,3.69
2022-10-15T05:55:59.530Z,3.70
2022-10-15T05:58:03.863Z,3.70
2022-10-15T06:00:07.860Z,3.71
2022-10-15T06:02:16.320Z,3.76
2022-10-15T06:04:19.153Z,3.76
2022-10-15T06:06:25.249Z,3.83
2022-10-15T06:08:29.676Z,3.80
2022-10-15T06:10:35.992Z,3.78
2022-10-15T06:12:39.426Z,3.82
2022-10-15T06:14:42.022Z,3.87
2022-10-15T06:16:44.700Z,3.88
2022-10-15T06:18:47.345Z,3.91
2022-10-15T06:20:53.917Z,3.94
2022-10-15T06:23:00.902Z,3.93
2022-10-15T06:25:03.777Z,3.96
2022-10-15T06:27:06.575Z,3.91
2022-10-15T06:29:10.638Z,3.94
2022-10-15T06:31:13.247Z,3.97
2022-10-15T06:33:17.326Z,3.97
2022-10-15T06:35:21.960Z,4.00
2022-10-15T06:37:24.839Z,4.02
2022-10-15T06:39:27.664Z,4.01
2022-10-15T06:41:30.301Z,4.06
2022-10-15T06:43:35.203Z,4.09
2022-10-15T06:45:42.794Z,4.10
2022-10-15T06:47:45.563Z,4.11
2022-10-15T06:49:48.327Z,4.14
2022-10-15T06:51:50.932Z,4.16
2022-10-15T06:53:53.622Z,4.18
2022-10-15T06:56:00.958Z,4.17
2022-10-15T06:58:03.706Z,4.17
2022-10-15T07:00:07.095Z,4.19
2022-10-15T07:02:11.412Z,4.20
2022-10-15T07:04:14.168Z,4.18
2022-10-15T07:06:17.110Z,4.17
2022-10-15T07:08:19.796Z,4.14
2022-10-15T07:10:23.399Z,4.19
2022-10-15T07:12:26.425Z,4.22
2022-10-15T07:14:29.833Z,4.28
2022-10-15T07:16:32.790Z,4.30
2022-10-15T07:18:36.563Z,4.32
2022-10-15T07:20:39.402Z,4.42
2022-10-15T07:22:42.772Z,4.55
2022-10-15T07:24:45.462Z,4.62
2022-10-15T07:26:48.588Z,4.71
2022-10-15T07:28:51.698Z,4.81
2022-10-15T07:30:54.537Z,4.81
2022-10-15T07:32:58.095Z,4.86
2022-10-15T07:35:00.917Z,4.96
2022-10-15T07:37:03.717Z,5.05
2022-10-15T07:39:06.359Z,5.11
2022-10-15T07:41:10.935Z,5.07
2022-10-15T07:43:16.224Z,5.03
2022-10-15T07:45:18.941Z,5.09
2022-10-15T07:47:22.253Z,5.17
2022-10-15T07:49:25.236Z,5.17
2022-10-15T07:51:28.348Z,5.11
2022-10-15T07:53:31.356Z,5.13
2022-10-15T07:55:33.990Z,5.19
2022-10-15T07:57:36.606Z,5.25
2022-10-15T07:59:39.232Z,5.16
2022-10-15T08:01:42.747Z,5.23
2022-10-15T08:03:46.567Z,5.30
2022-10-15T08:05:53.329Z,5.32
2022-10-15T08:07:56.055Z,5.37
2022-10-15T08:09:58.786Z,5.40
2022-10-15T08:12:01.474Z,5.45
2022-10-15T08:14:04.340Z,5.45
2022-10-15T08:16:07.271Z,5.45
2022-10-15T08:18:12.931Z,5.44
2022-10-15T08:20:15.619Z,5.51
2022-10-15T08:22:18.397Z,5.56
2022-10-15T08:24:21.165Z,5.64
2022-10-15T08:26:24.027Z,5.69
2022-10-15T08:28:31.966Z,5.68
2022-10-15T08:30:34.972Z,5.75
2022-10-15T08:32:37.622Z,5.86
2022-10-15T08:34:40.415Z,5.87
2022-10-15T08:36:43.710Z,5.75
2022-10-15T08:38:46.430Z,5.75
2022-10-15T08:40:52.054Z,5.81
2022-10-15T08:42:54.853Z,5.93
2022-10-15T08:45:02.586Z,6.03
2022-10-15T08:47:17.952Z,6.05
2022-10-15T08:49:46.112Z,6.09
2022-10-15T08:51:54.856Z,6.10
2022-10-15T08:54:02.638Z,6.09
2022-10-15T08:56:15.231Z,5.99
2022-10-15T08:58:25.581Z,5.90
2022-10-15T09:00:36.318Z,5.86
2022-10-15T09:03:00.204Z,5.91
2022-10-15T09:05:21.235Z,6.05
2022-10-15T09:07:37.300Z,6.11
2022-10-15T09:09:58.390Z,6.22
2022-10-15T09:12:38.429Z,6.25
2022-10-15T09:14:45.174Z,6.18
2022-10-15T09:16:51.421Z,6.28
2022-10-15T09:18:54.782Z,6.29
2022-10-15T09:20:58.516Z,6.54
2022-10-15T09:23:01.605Z,6.58
2022-10-15T09:25:22.262Z,6.59
2022-10-15T09:27:36.755Z,6.54
2022-10-15T09:29:53.150Z,6.61
2022-10-15T09:32:39.143Z,6.55
2022-10-15T09:34:54.852Z,6.48
2022-10-15T09:37:05.626Z,6.44
2022-10-15T09:39:23.713Z,6.41
2022-10-15T09:42:07.582Z,6.37
2022-10-15T09:44:14.770Z,6.34
2022-10-15T09:46:17.957Z,6.32
2022-10-15T09:48:21.419Z,6.33
2022-10-15T09:50:26.237Z,6.34
2022-10-15T09:53:06.646Z,6.37
2022-10-15T09:55:17.407Z,6.44
2022-10-15T09:57:22.784Z,6.45
2022-10-15T09:59:26.118Z,6.45
2022-10-15T10:01:31.107Z,6.49
2022-10-15T10:03:36.078Z,6.56
2022-10-15T10:05:39.374Z,6.69
2022-10-15T10:07:42.217Z,6.76
2022-10-15T10:09:53.911Z,6.81
2022-10-15T10:12:09.023Z,7.02
2022-10-15T10:14:26.998Z,7.14
2022-10-15T10:16:32.356Z,7.24
2022-10-15T10:18:35.942Z,7.30
2022-10-15T10:20:58.915Z,7.38
2022-10-15T10:23:20.689Z,7.33
2022-10-15T10:25:30.369Z,7.18
2022-10-15T10:27:33.761Z,7.11
2022-10-15T10:29:41.355Z,7.09
2022-10-15T10:31:45.260Z,7.10
2022-10-15T10:33:50.593Z,7.12
2022-10-15T10:35:53.476Z,7.06
2022-10-15T10:37:56.162Z,7.06
2022-10-15T10:40:01.060Z,7.08
2022-10-15T10:42:20.175Z,7.22
2022-10-15T10:44:30.822Z,7.37
2022-10-15T10:46:33.439Z,7.50
2022-10-15T10:48:50.503Z,7.66
2022-10-15T10:51:08.990Z,7.69
2022-10-15T10:53:24.253Z,7.86
2022-10-15T10:55:37.436Z,7.98
2022-10-15T10:58:03.824Z,8.08
2022-10-15T11:00:08.138Z,8.09
2022-10-15T11:02:13.168Z,8.16
2022-10-15T11:04:33.970Z,8.17
2022-10-15T11:06:42.769Z,8.25
2022-10-15T11:08:48.120Z,8.22
2022-10-15T11:11:03.171Z,8.17
2022-10-15T11:13:27.661Z,8.15
2022-10-15T11:15:45.352Z,8.18
2022-10-15T11:17:50.681Z,8.28
2022-10-15T11:23:00.120Z,8.44
2022-10-15T11:25:22.940Z,8.47
2022-10-15T11:27:54.993Z,8.56
2022-10-15T11:30:35.666Z,8.64
2022-10-15T11:33:07.682Z,8.73
2022-10-15T11:35:52.498Z,8.87
2022-10-15T11:38:32.808Z,8.87
2022-10-15T11:41:12.727Z,8.86
2022-10-15T11:43:33.544Z,8.75
2022-10-15T11:45:43.883Z,8.80
2022-10-15T11:48:34.317Z,8.86
2022-10-15T11:50:40.164Z,8.92
2022-10-15T11:52:42.654Z,9.01
2022-10-15T11:55:17.809Z,9.05
2022-10-15T11:57:23.407Z,9.15
2022-10-15T11:59:46.790Z,9.23
2022-10-15T12:01:55.226Z,9.09
2022-10-15T12:04:06.176Z,9.22
2022-10-15T12:06:16.631Z,9.23
2022-10-15T12:08:21.293Z,9.20
2022-10-15T12:10:47.914Z,9.32
2022-10-15T12:13:00.805Z,9.41
2022-10-15T12:15:28.665Z,9.46
2022-10-15T12:18:09.515Z,9.54
2022-10-15T12:20:18.725Z,9.51
2022-10-15T12:22:39.565Z,9.52
2022-10-15T12:24:45.388Z,9.53
2022-10-15T12:26:48.239Z,9.61
2022-10-15T12:28:59.494Z,9.61
2022-10-15T12:31:06.587Z,9.64
2022-10-15T12:33:29.253Z,9.61
2022-10-15T12:35:36.806Z,9.70
2022-10-15T12:37:39.457Z,9.83
2022-10-15T12:39:59.507Z,9.86
2022-10-15T12:42:02.539Z,9.89
2022-10-15T12:44:19.133Z,9.92
2022-10-15T12:46:21.894Z,10.00
2022-10-15T12:48:39.757Z,10.06
2022-10-15T12:50:42.675Z,10.12
2022-10-15T12:53:00.627Z,10.25
2022-10-15T12:55:28.237Z,10.29
2022-10-15T12:57:30.880Z,10.21
2022-10-15T12:59:45.658Z,10.06
2022-10-15T13:01:48.241Z,10.05
2022-10-15T13:03:50.809Z,10.12
2022-10-15T13:05:55.538Z,10.11
2022-10-15T13:08:04.234Z,10.16
2022-10-15T13:10:20.774Z,10.05
2022-10-15T13:12:28.841Z,10.02
2022-10-15T13:14:39.395Z,9.94
2022-10-15T13:16:46.227Z,9.74
2022-10-15T13:18:54.056Z,9.61
2022-10-15T13:20:57.957Z,9.40
2022-10-15T13:23:31.928Z,9.11
2022-10-15T13:25:34.840Z,8.85
2022-10-15T13:27:37.889Z,8.70
2022-10-15T13:29:40.620Z,8.55
2022-10-15T13:31:46.530Z,8.36
2022-10-15T13:33:55.105Z,8.23
2022-10-15T13:36:07.101Z,8.04
2022-10-15T13:38:21.032Z,7.95
2022-10-15T13:40:26.696Z,7.87
2022-10-15T13:42:29.429Z,7.77
2022-10-15T13:44:31.990Z,7.69
2022-10-15T13:46:38.886Z,7.57
2022-10-15T13:51:03.232Z,7.36
2022-10-15T13:53:14.986Z,7.30
2022-10-15T13:55:21.152Z,7.18
2022-10-15T13:57:23.865Z,7.10
2022-10-15T13:59:29.900Z,7.01
2022-10-15T14:01:35.051Z,6.96
2022-10-15T14:03:39.463Z,6.90
2022-10-15T14:05:44.202Z,6.87
2022-10-15T14:07:54.844Z,6.78
2022-10-15T14:09:57.893Z,6.63
2022-10-15T14:12:03.429Z,6.63
2022-10-15T14:14:36.731Z,6.59
2022-10-15T14:16:48.050Z,6.47
2022-10-15T14:18:54.316Z,6.38
2022-10-15T14:20:57.257Z,6.33
2022-10-15T14:23:00.020Z,6.29
2022-10-15T14:25:10.523Z,6.25
2022-10-15T14:27:20.343Z,6.21
2022-10-15T14:29:27.483Z,6.17
2022-10-15T14:31:37.511Z,6.09
2022-10-15T14:33:44.404Z,6.08
2022-10-15T14:36:03.318Z,6.06
2022-10-15T14:38:16.718Z,5.99
2022-10-15T14:40:21.604Z,5.97
2022-10-15T14:42:28.558Z,5.91
2022-10-15T14:45:11.509Z,5.84
2022-10-15T14:47:22.201Z,5.78
2022-10-15T14:49:34.843Z,5.76
2022-10-15T14:51:37.515Z,5.69
2022-10-15T14:53:46.531Z,5.64
2022-10-15T14:55:53.627Z,5.61
2022-10-15T14:57:56.343Z,5.55
2022-10-15T15:00:00.451Z,5.49
2022-10-15T15:02:05.576Z,5.48
2022-10-15T15:04:33.629Z,5.44
2022-10-15T15:06:36.236Z,5.40
2022-10-15T15:08:38.895Z,5.38
2022-10-15T15:10:42.518Z,5.36
2022-10-15T15:12:56.772Z,5.32
2022-10-15T15:14:59.791Z,5.29
2022-10-15T15:17:02.366Z,5.22
2022-10-15T15:19:09.194Z,5.21
2022-10-15T15:21:15.008Z,5.16
2022-10-15T15:23:24.253Z,5.13
2022-10-15T15:25:33.916Z,5.04
2022-10-15T15:27:37.778Z,5.02
2022-10-15T15:29:42.028Z,5.00
2022-10-15T15:31:45.563Z,4.97
2022-10-15T15:33:48.348Z,4.93
2022-10-15T15:35:54.518Z,4.90
2022-10-15T15:37:57.184Z,4.85
2022-10-15T15:39:59.800Z,4.81
2022-10-15T15:42:02.437Z,4.77
2022-10-15T15:44:05.684Z,4.74
2022-10-15T15:46:08.538Z,4.71
2022-10-15T15:48:11.114Z,4.70
2022-10-15T15:50:14.366Z,4.70
2022-10-15T15:52:19.088Z,4.68
2022-10-15T15:54:21.789Z,4.66
2022-10-15T15:56:24.843Z,4.63
2022-10-15T15:58:27.501Z,4.62
2022-10-15T16:00:30.249Z,4.57
2022-10-15T16:02:33.106Z,4.57
2022-10-15T16:04:35.919Z,4.56
2022-10-15T16:06:39.866Z,4.53
2022-10-15T16:08:42.513Z,4.52
2022-10-15T16:10:45.214Z,4.50
2022-10-15T16:12:48.015Z,4.49
2022-10-15T16:14:50.757Z,4.47
2022-10-15T16:16:53.342Z,4.45
2022-10-15T16:18:56.002Z,4.42
2022-10-15T16:20:58.600Z,4.40
2022-10-15T16:23:01.239Z,4.38
2022-10-15T16:25:04.021Z,4.36
2022-10-15T16:27:06.806Z,4.36
2022-10-15T16:29:09.476Z,4.36
2022-10-15T16:31:27.807Z,4.33
2022-10-15T16:33:33.151Z,4.28
2022-10-15T16:35:35.886Z,4.18
2022-10-15T16:37:38.552Z,4.22
2022-10-15T16:39:41.259Z,4.21
2022-10-15T16:41:43.892Z,4.18
2022-10-15T16:43:50.052Z,4.18
2022-10-15T16:45:59.730Z,4.17
2022-10-15T16:48:02.335Z,4.15
2022-10-15T16:50:05.317Z,4.13
2022-10-15T16:52:08.096Z,4.10
2022-10-15T16:54:15.625Z,4.09
2022-10-15T16:56:29.525Z,4.06
2022-10-15T16:58:32.942Z,4.03
2022-10-15T17:00:35.677Z,4.05
2022-10-15T17:02:38.468Z,4.03
2022-10-15T17:04:41.117Z,4.01
2022-10-15T17:06:43.734Z,4.00
2022-10-15T17:08:58.027Z,4.00
2022-10-15T17:11:19.007Z,3.99
2022-10-15T17:13:27.874Z,3.96
2022-10-15T17:15:30.562Z,3.97
2022-10-15T17:17:33.178Z,3.95
2022-10-15T17:19:35.842Z,3.97
2022-10-15T17:21:40.329Z,3.94
2022-10-15T17:23:44.103Z,3.93
2022-10-15T17:25:46.817Z,3.92
2022-10-15T17:27:49.537Z,3.90
2022-10-15T17:29:52.407Z,3.90
2022-10-15T17:31:55.077Z,3.88
2022-10-15T17:34:00.875Z,3.88
2022-10-15T17:36:08.939Z,3.86
2022-10-15T17:38:11.575Z,3.81
2022-10-15T17:40:14.293Z,3.81
2022-10-15T17:42:17.093Z,3.77
2022-10-15T17:44:20.445Z,3.76
2022-10-15T17:46:25.844Z,3.76
2022-10-15T17:48:28.936Z,3.76
2022-10-15T17:50:31.545Z,3.74
2022-10-15T17:52:34.439Z,3.72
2022-10-15T17:54:37.349Z,3.72
2022-10-15T17:56:40.227Z,3.72
2022-10-15T17:58:45.060Z,3.71
2022-10-15T18:00:58.334Z,3.70
2022-10-15T18:03:01.506Z,3.68
2022-10-15T18:05:04.627Z,3.66
2022-10-15T18:07:07.666Z,3.64
2022-10-15T18:09:10.302Z,3.59
2022-10-15T18:11:19.421Z,3.53
2022-10-15T18:13:22.117Z,3.50
2022-10-15T18:15:24.841Z,3.45
2022-10-15T18:17:27.901Z,3.41
2022-10-15T18:19:30.922Z,3.34
2022-10-15T18:21:33.562Z,3.31
2022-10-15T18:23:37.349Z,3.24
2022-10-15T18:25:40.071Z,3.21
2022-10-15T18:27:42.742Z,3.18
2022-10-15T18:29:45.432Z,3.13
2022-10-15T18:31:52.229Z,3.09
2022-10-15T18:33:57.931Z,3.07
2022-10-15T18:36:12.490Z,3.07
2022-10-15T18:38:16.453Z,3.04
2022-10-15T18:40:19.056Z,3.01
2022-10-15T18:42:22.038Z,2.99
2022-10-15T18:44:25.167Z,2.99
2022-10-15T18:46:28.858Z,2.99
2022-10-15T18:48:32.919Z,2.97
2022-10-15T18:50:36.378Z,2.98
2022-10-15T18:52:40.490Z,2.99
2022-10-15T18:54:43.378Z,2.99
2022-10-15T18:56:46.637Z,2.97
2022-10-15T18:58:50.159Z,2.99
2022-10-15T19:00:52.862Z,2.96
2022-10-15T19:02:56.991Z,2.97
2022-10-15T19:04:59.586Z,2.97
2022-10-15T19:07:05.264Z,2.98
2022-10-15T19:09:11.149Z,2.94
2022-10-15T19:11:13.784Z,2.94
2022-10-15T19:13:16.490Z,2.93
2022-10-15T19:15:19.155Z,2.91
2022-10-15T19:17:21.799Z,2.90
2022-10-15T19:19:26.272Z,2.89
2022-10-15T19:21:28.912Z,2.89
2022-10-15T19:23:32.056Z,2.87
2022-10-15T19:25:34.757Z,2.89
2022-10-15T19:27:37.476Z,2.85
2022-10-15T19:29:40.649Z,2.85
2022-10-15T19:31:46.850Z,2.81
2022-10-15T19:33:49.477Z,2.82
2022-10-15T19:35:53.163Z,2.81
2022-10-15T19:37:56.137Z,2.78
2022-10-15T19:39:58.750Z,2.79
2022-10-15T19:42:02.768Z,2.78
2022-10-15T19:44:08.393Z,2.76
2022-10-15T19:46:11.244Z,2.77
2022-10-15T19:48:16.807Z,2.73
2022-10-15T19:50:19.612Z,2.73
2022-10-15T19:52:22.188Z,2.72
2022-10-15T19:56:33.724Z,2.69
2022-10-15T19:58:37.093Z,2.68
2022-10-15T20:00:39.714Z,2.70
2022-10-15T20:02:42.535Z,2.68
2022-10-15T20:04:45.096Z,2.67
2022-10-15T20:06:49.393Z,2.68
2022-10-15T20:08:52.159Z,2.66
2022-10-15T20:10:54.833Z,2.65
2022-10-15T20:12:57.422Z,2.64
2022-10-15T20:15:00.083Z,2.65
2022-10-15T20:17:03.505Z,2.64
2022-10-15T20:19:07.110Z,2.64
2022-10-15T20:21:11.748Z,2.64
2022-10-15T20:23:17.710Z,2.64
2022-10-15T20:25:20.334Z,2.62
2022-10-15T20:27:23.000Z,2.63
2022-10-15T20:29:25.670Z,2.62
2022-10-15T20:31:32.883Z,2.60
2022-10-15T20:33:36.949Z,2.58
2022-10-15T20:35:40.871Z,2.57
2022-10-15T20:37:43.622Z,2.53
2022-10-15T20:39:46.390Z,2.56
2022-10-15T20:41:49.483Z,2.50
2022-10-15T20:43:57.685Z,2.53
2022-10-15T20:46:00.410Z,2.52
2022-10-15T20:48:03.624Z,2.52
2022-10-15T20:50:12.622Z,2.52
2022-10-15T20:52:15.881Z,2.52
2022-10-15T20:54:19.345Z,2.49
2022-10-15T20:56:23.688Z,2.52
2022-10-15T20:58:26.485Z,2.51
2022-10-15T21:00:29.126Z,2.54
2022-10-15T21:02:31.716Z,2.56
2022-10-15T21:04:34.385Z,2.53
2022-10-15T21:06:37.029Z,2.58
2022-10-15T21:08:39.678Z,2.57
2022-10-15T21:10:42.814Z,2.58
2022-10-15T21:12:45.401Z,2.60
2022-10-15T21:14:48.181Z,2.61
2022-10-15T21:16:51.051Z,2.62
2022-10-15T21:18:54.424Z,2.59
2022-10-15T21:21:11.289Z,2.57
2022-10-15T21:23:14.478Z,2.55
2022-10-15T21:25:17.198Z,2.52
2022-10-15T21:27:19.735Z,2.50
2022-10-15T21:29:22.977Z,2.45
2022-10-15T21:31:26.550Z,2.44
2022-10-15T21:33:30.390Z,2.40
2022-10-15T21:35:32.958Z,2.38
2022-10-15T21:37:37.875Z,2.36
2022-10-15T21:39:40.533Z,2.32
2022-10-15T21:41:43.173Z,2.31
2022-10-15T21:43:45.862Z,2.27
2022-10-15T21:45:48.515Z,2.27
2022-10-15T21:47:51.209Z,2.24
2022-10-15T21:49:53.828Z,2.25
2022-10-15T21:51:56.501Z,2.24
2022-10-15T21:54:00.142Z,2.24
2022-10-15T21:56:02.796Z,2.24
2022-10-15T21:58:05.497Z,2.28
2022-10-15T22:00:14.548Z,2.35
2022-10-15T22:04:24.650Z,2.44
2022-10-15T22:06:27.885Z,2.51
2022-10-15T22:08:30.962Z,2.56
2022-10-15T22:10:35.687Z,2.60
2022-10-15T22:12:38.564Z,2.64
2022-10-15T22:14:41.212Z,2.64
2022-10-15T22:16:44.238Z,2.67
2022-10-15T22:18:47.356Z,2.71
2022-10-15T22:20:50.072Z,2.75
2022-10-15T22:22:55.993Z,2.78
2022-10-15T22:24:59.805Z,2.81
2022-10-15T22:27:02.376Z,2.87
2022-10-15T22:29:07.858Z,2.90
2022-10-15T22:31:12.985Z,2.93
2022-10-15T22:33:15.621Z,2.98
2022-10-15T22:35:18.238Z,3.02
2022-10-15T22:37:20.895Z,3.03
2022-10-15T22:39:23.543Z,3.06
2022-10-15T22:41:28.323Z,3.08
2022-10-15T22:43:30.992Z,3.12
2022-10-15T22:45:33.592Z,3.15
2022-10-15T22:47:36.173Z,3.15
2022-10-15T22:49:38.832Z,3.17
2022-10-15T22:51:42.423Z,3.17
2022-10-15T22:53:45.141Z,3.18
2022-10-15T22:55:56.119Z,3.20
2022-10-15T22:57:58.720Z,3.18
2022-10-15T23:00:01.277Z,3.21
2022-10-15T23:02:05.085Z,3.20
2022-10-15T23:04:08.490Z,3.22
2022-10-15T23:06:11.965Z,3.24
2022-10-15T23:08:14.813Z,3.24
2022-10-15T23:10:17.440Z,3.25
2022-10-15T23:12:20.099Z,3.27
2022-10-15T23:14:23.012Z,3.27
2022-10-15T23:16:30.639Z,3.30
2022-10-15T23:18:33.377Z,3.31
2022-10-15T23:20:38.251Z,3.32
2022-10-15T23:22:40.822Z,3.31
2022-10-15T23:24:43.384Z,3.20
2022-10-15T23:26:47.044Z,3.24
2022-10-15T23:28:54.728Z,3.23
2022-10-15T23:30:57.569Z,3.21
2022-10-15T23:33:02.946Z,3.19
2022-10-15T23:35:11.282Z,3.18
2022-10-15T23:37:13.919Z,3.16
2022-10-15T23:39:23.563Z,3.11
2022-10-15T23:41:27.736Z,3.08
2022-10-15T23:43:31.484Z,3.02
2022-10-15T23:45:35.798Z,3.01
2022-10-15T23:47:40.731Z,2.98
2022-10-15T23:49:43.408Z,2.99
2022-10-15T23:51:46.194Z,2.99
2022-10-15T23:53:50.180Z,2.99
2022-10-15T23:55:52.853Z,3.00
2022-10-15T23:57:55.464Z,2.97
2022-10-15T23:59:58.329Z,2.95
